Time;durP1;ratioP1;P1;durP2;ratioP2;P2;SDS_P1;SDS_P2;PMS_P1;PMS_P2;Temp;Humidity;BMP_temperature;BMP_pressure;BME280_temperature;BME280_humidity;BME280_pressure;Samples;Min_cycle;Max_cycle;Signal;HPM_P1;HPM_P2
2021/03/03 00:01:31;;;;;;;;;;;;;;;12.30;36.53;101770.78;5231880;27;31532;-86
2021/03/03 00:03:58;;;;;;;;;;;;;;;12.57;36.13;101763.62;5231272;27;33568;-86
2021/03/03 00:06:25;;;;;;;;;;;;;;;13.14;34.98;101771.03;5231210;27;32819;-88
2021/03/03 00:08:52;;;;;;;;;;;;;;;13.46;34.53;101766.41;5231237;27;34077;-89
2021/03/03 00:11:19;;;;;;;;;;;;;;;13.77;33.94;101769.53;5231161;27;31936;-86
2021/03/03 00:13:46;;;;;;;;;;;;;;;14.07;33.50;101763.94;5231091;27;32686;-86
2021/03/03 00:16:13;;;;;;;;;;;;;;;13.38;34.82;101766.47;5231398;27;34842;-88
2021/03/03 00:18:45;;;;;;;;;;;;;;;14.11;33.39;101768.25;5248260;27;34860;-86
2021/03/03 00:21:12;;;;;;;;;;;;;;;14.09;33.39;101762.16;5231019;27;31785;-85
2021/03/03 00:23:39;;;;;;;;;;;;;;;13.55;34.37;101763.69;5231319;27;33922;-87
2021/03/03 00:26:07;;;;;;;;;;;;;;;13.51;34.41;101760.22;5231112;27;34824;-86
2021/03/03 00:28:34;;;;;;;;;;;;;;;12.72;35.83;101756.56;5230919;27;33668;-87
2021/03/03 00:31:02;;;;;;;;;;;;;;;13.03;35.29;101755.44;5231079;27;33139;-86
2021/03/03 00:33:29;;;;;;;;;;;;;;;13.45;34.43;101756.81;5231068;27;34073;-87
2021/03/03 00:35:56;;;;;;;;;;;;;;;12.82;35.84;101750.41;5249069;27;33798;-87
2021/03/03 00:38:23;;;;;;;;;;;;;;;13.23;34.95;101758.72;5231046;27;34040;-89
2021/03/03 00:40:50;;;;;;;;;;;;;;;13.26;34.87;101750.88;5230958;27;34138;-89
2021/03/03 00:43:17;;;;;;;;;;;;;;;13.21;34.89;101750.91;5232613;27;34590;-85
2021/03/03 00:45:44;;;;;;;;;;;;;;;13.17;34.68;101743.97;5231230;27;34017;-86
2021/03/03 00:48:12;;;;;;;;;;;;;;;13.45;34.37;101749.81;5230935;27;33471;-88
2021/03/03 00:50:39;;;;;;;;;;;;;;;13.12;34.96;101741.41;5231545;27;33940;-88
2021/03/03 00:53:10;;;;;;;;;;;;;;;13.47;34.39;101741.97;5231045;27;32643;-87
2021/03/03 00:55:38;;;;;;;;;;;;;;;13.31;34.52;101741.22;5213477;27;33043;-89
2021/03/03 00:58:05;;;;;;;;;;;;;;;12.79;35.75;101743.44;5248837;27;33991;-85
2021/03/03 01:00:35;;;;;;;;;;;;;;;13.39;34.44;101735.91;5248691;27;34415;-85
2021/03/03 01:03:04;;;;;;;;;;;;;;;13.99;33.46;101732.59;5248614;27;34443;-87
2021/03/03 01:05:32;;;;;;;;;;;;;;;13.46;34.29;101730.59;5231044;27;32778;-86
2021/03/03 01:08:00;;;;;;;;;;;;;;;13.09;35.43;101736.19;5230647;27;33140;-87
2021/03/03 01:10:27;;;;;;;;;;;;;;;12.60;36.52;101734.84;5230845;27;33603;-85
2021/03/03 01:12:54;;;;;;;;;;;;;;;12.15;37.13;101731.66;5230918;27;33150;-87
2021/03/03 01:15:21;;;;;;;;;;;;;;;13.33;35.03;101727.22;5249136;27;33819;-86
2021/03/03 01:17:50;;;;;;;;;;;;;;;13.07;35.56;101722.25;5248691;27;35235;-88
2021/03/03 01:20:17;;;;;;;;;;;;;;;13.42;34.89;101723.66;5248468;27;33039;-85
2021/03/03 01:22:44;;;;;;;;;;;;;;;13.60;34.42;101719.97;5248542;27;34064;-86
2021/03/03 01:25:11;;;;;;;;;;;;;;;13.67;34.17;101721.63;5230756;27;33694;-88
2021/03/03 01:27:38;;;;;;;;;;;;;;;13.61;34.17;101716.44;5248326;27;33681;-87
2021/03/03 01:30:05;;;;;;;;;;;;;;;13.10;35.11;101721.37;5248724;27;32390;-87
2021/03/03 01:32:32;;;;;;;;;;;;;;;13.50;34.29;101718.34;5230841;27;34263;-87
2021/03/03 01:34:59;;;;;;;;;;;;;;;13.35;34.44;101712.38;5230877;27;33875;-89
2021/03/03 01:37:26;;;;;;;;;;;;;;;13.30;34.50;101706.31;5232123;27;34407;-88
2021/03/03 01:39:53;;;;;;;;;;;;;;;13.05;34.94;101704.84;5230614;27;34232;-87
2021/03/03 01:42:20;;;;;;;;;;;;;;;13.60;33.99;101700.75;5248106;27;34545;-86
2021/03/03 01:44:47;;;;;;;;;;;;;;;12.90;35.36;101703.25;5248508;27;34901;-85
2021/03/03 01:47:14;;;;;;;;;;;;;;;12.71;35.62;101711.25;5230481;27;34018;-86
2021/03/03 01:49:42;;;;;;;;;;;;;;;13.13;34.99;101708.25;5213012;27;31887;-87
2021/03/03 01:52:09;;;;;;;;;;;;;;;13.68;33.95;101704.16;5248478;27;34132;-87
2021/03/03 01:54:36;;;;;;;;;;;;;;;13.30;34.59;101714.16;5230784;27;33252;-89
2021/03/03 01:57:03;;;;;;;;;;;;;;;13.18;34.87;101703.84;5230648;27;33131;-88
2021/03/03 01:59:30;;;;;;;;;;;;;;;12.88;35.40;101699.75;5248521;27;32383;-89
2021/03/03 02:01:57;;;;;;;;;;;;;;;12.82;35.40;101692.84;5248478;27;33905;-88
2021/03/03 02:04:25;;;;;;;;;;;;;;;12.80;35.41;101700.72;5230012;27;34881;-87
2021/03/03 02:07:10;;;;;;;;;;;;;;;12.05;36.67;101702.13;5248313;27;34167;-86
2021/03/03 02:09:56;;;;;;;;;;;;;;;12.16;36.62;101697.69;5230793;27;33545;-88
2021/03/03 02:12:32;;;;;;;;;;;;;;;12.05;36.48;101702.13;5230682;27;34048;-86
2021/03/03 02:15:00;;;;;;;;;;;;;;;11.92;36.87;101695.19;5230559;27;34683;-85
2021/03/03 02:17:27;;;;;;;;;;;;;;;12.28;36.06;101690.66;5231139;27;32732;-85
2021/03/03 02:19:59;;;;;;;;;;;;;;;12.55;35.55;101683.47;5248631;27;33311;-88
2021/03/03 02:22:35;;;;;;;;;;;;;;;12.29;36.03;101697.63;5254359;27;34877;-83
2021/03/03 02:25:03;;;;;;;;;;;;;;;12.34;36.27;101691.47;5241493;27;33433;-84
2021/03/03 02:27:38;;;;;;;;;;;;;;;12.29;36.41;101692.38;5253427;27;34199;-87
2021/03/03 02:30:05;;;;;;;;;;;;;;;12.03;36.68;101689.06;5230349;27;33246;-86
2021/03/03 02:32:33;;;;;;;;;;;;;;;11.91;36.84;101689.06;5248249;27;34080;-87
2021/03/03 02:35:00;;;;;;;;;;;;;;;12.31;36.05;101690.63;5230411;27;34174;-87
2021/03/03 02:37:26;;;;;;;;;;;;;;;12.51;35.48;101691.34;5212710;27;33309;-86
2021/03/03 02:39:54;;;;;;;;;;;;;;;12.30;36.02;101688.91;5230487;27;32947;-88
2021/03/03 02:42:20;;;;;;;;;;;;;;;12.29;36.08;101687.16;5230356;27;33853;-85
2021/03/03 02:44:48;;;;;;;;;;;;;;;12.50;35.41;101684.37;5230352;27;33882;-86
2021/03/03 02:47:15;;;;;;;;;;;;;;;11.97;36.15;101685.63;5230262;27;33303;-86
2021/03/03 02:49:42;;;;;;;;;;;;;;;12.59;35.01;101693.91;5230293;27;33187;-86
2021/03/03 02:52:18;;;;;;;;;;;;;;;11.97;36.22;101686.47;5230240;27;32406;-87
2021/03/03 02:54:45;;;;;;;;;;;;;;;13.03;34.39;101673.47;5212423;27;33355;-86
2021/03/03 02:57:12;;;;;;;;;;;;;;;13.03;34.32;101670.84;5212304;27;33699;-86
2021/03/03 02:59:39;;;;;;;;;;;;;;;12.58;35.17;101678.22;5248082;27;34527;-86
2021/03/03 03:02:07;;;;;;;;;;;;;;;12.56;35.42;101675.59;5230403;27;33385;-87
2021/03/03 03:04:35;;;;;;;;;;;;;;;12.52;35.21;101686.97;5247955;27;33772;-87
2021/03/03 03:07:07;;;;;;;;;;;;;;;12.18;35.68;101674.19;5247765;27;34205;-87
2021/03/03 03:09:34;;;;;;;;;;;;;;;12.16;35.54;101675.91;5230130;27;32082;-87
2021/03/03 03:12:01;;;;;;;;;;;;;;;11.92;36.29;101679.50;5247884;27;34256;-87
2021/03/03 03:14:28;;;;;;;;;;;;;;;11.95;36.43;101682.13;5247811;27;35554;-88
2021/03/03 03:16:56;;;;;;;;;;;;;;;11.83;36.47;101675.19;5231136;27;32836;-87
2021/03/03 03:19:24;;;;;;;;;;;;;;;12.31;35.56;101688.00;5248696;27;33245;-86
2021/03/03 03:21:51;;;;;;;;;;;;;;;11.99;36.00;101687.34;5231233;27;34156;-86
2021/03/03 03:24:19;;;;;;;;;;;;;;;12.43;35.04;101679.22;5231102;27;33008;-87
2021/03/03 03:26:46;;;;;;;;;;;;;;;12.15;35.35;101679.41;5232645;27;34848;-85
2021/03/03 03:29:13;;;;;;;;;;;;;;;11.58;36.45;101687.50;5231286;27;33280;-87
2021/03/03 03:31:41;;;;;;;;;;;;;;;12.18;35.39;101679.41;5248827;27;33948;-86
2021/03/03 03:34:08;;;;;;;;;;;;;;;12.05;35.34;101685.59;5231331;27;33763;-87
2021/03/03 03:36:35;;;;;;;;;;;;;;;11.49;36.25;101691.03;5249056;27;33703;-87
2021/03/03 03:39:04;;;;;;;;;;;;;;;12.06;35.31;101687.28;5249543;27;34088;-87
2021/03/03 03:41:30;;;;;;;;;;;;;;;12.65;34.33;101687.75;5233804;27;34935;-87
2021/03/03 03:43:57;;;;;;;;;;;;;;;12.83;34.02;101689.31;5250094;27;34964;-87
2021/03/03 03:46:25;;;;;;;;;;;;;;;13.01;33.47;101683.91;5230987;27;33145;-87
2021/03/03 03:48:52;;;;;;;;;;;;;;;12.06;34.85;101685.56;5231069;27;33349;-87
2021/03/03 03:51:19;;;;;;;;;;;;;;;12.36;34.29;101694.97;5231341;27;33575;-86
2021/03/03 03:53:46;;;;;;;;;;;;;;;11.82;35.11;101690.00;5248866;27;34862;-87
2021/03/03 03:56:13;;;;;;;;;;;;;;;11.91;34.79;101683.84;5231324;27;34868;-86
2021/03/03 03:58:40;;;;;;;;;;;;;;;11.64;35.48;101684.87;5248884;27;33299;-87
2021/03/03 04:01:07;;;;;;;;;;;;;;;12.02;34.71;101684.72;5248747;27;34011;-88
2021/03/03 04:03:34;;;;;;;;;;;;;;;11.58;35.26;101682.28;5230940;27;35223;-88
2021/03/03 04:06:01;;;;;;;;;;;;;;;11.94;34.45;101689.09;5232629;27;34880;-85
2021/03/03 04:08:29;;;;;;;;;;;;;;;11.15;35.99;101691.13;5230764;27;32095;-87
2021/03/03 04:10:56;;;;;;;;;;;;;;;10.97;36.40;101692.03;5230828;27;32991;-85
2021/03/03 04:13:23;;;;;;;;;;;;;;;11.08;35.78;101702.44;5231023;27;35603;-87
2021/03/03 04:15:50;;;;;;;;;;;;;;;11.11;35.55;101690.25;5231314;27;34271;-88
2021/03/03 04:18:17;;;;;;;;;;;;;;;11.09;35.65;101693.72;5231232;27;33085;-87
2021/03/03 04:20:45;;;;;;;;;;;;;;;11.18;35.18;101697.19;5248745;27;35117;-85
2021/03/03 04:23:13;;;;;;;;;;;;;;;11.24;34.93;101695.47;5231048;27;34281;-86
2021/03/03 04:25:40;;;;;;;;;;;;;;;10.86;35.65;101689.41;5230849;27;32893;-87
2021/03/03 04:28:07;;;;;;;;;;;;;;;11.09;35.32;101705.03;5230791;27;33066;-87
2021/03/03 04:30:34;;;;;;;;;;;;;;;11.12;35.28;101698.97;5248979;27;34647;-85
2021/03/03 04:33:09;;;;;;;;;;;;;;;11.59;34.31;101692.72;5247678;27;34250;-88
2021/03/03 04:35:36;;;;;;;;;;;;;;;11.26;35.13;101694.59;5213480;27;33297;-87
2021/03/03 04:38:03;;;;;;;;;;;;;;;10.80;35.98;101699.88;5213436;27;33525;-88
2021/03/03 04:40:30;;;;;;;;;;;;;;;11.41;34.93;101691.06;5248390;27;34103;-88
2021/03/03 04:42:57;;;;;;;;;;;;;;;11.06;35.94;101696.34;5249081;27;35238;-85
2021/03/03 04:45:24;;;;;;;;;;;;;;;11.31;35.45;101699.78;5248625;27;34133;-87
2021/03/03 04:47:54;;;;;;;;;;;;;;;11.25;35.67;101694.56;5214567;27;32291;-85
2021/03/03 04:50:23;;;;;;;;;;;;;;;11.18;35.64;101693.69;5233044;27;33722;-86
2021/03/03 04:52:49;;;;;;;;;;;;;;;11.51;34.73;101694.47;5231970;27;33230;-86
2021/03/03 04:55:17;;;;;;;;;;;;;;;11.31;34.92;101686.72;5257152;27;34587;-85
2021/03/03 04:57:44;;;;;;;;;;;;;;;10.81;35.52;101691.16;5241157;27;32989;-84
2021/03/03 05:00:11;;;;;;;;;;;;;;;11.11;35.38;101692.84;5237236;27;33711;-87
2021/03/03 05:02:39;;;;;;;;;;;;;;;11.38;35.14;101692.78;5232820;27;35096;-88
2021/03/03 05:05:06;;;;;;;;;;;;;;;11.09;35.77;101694.59;5231137;27;34791;-88
2021/03/03 05:07:33;;;;;;;;;;;;;;;11.06;35.84;101696.34;5231126;27;32926;-87
2021/03/03 05:10:01;;;;;;;;;;;;;;;10.50;36.97;101692.03;5233501;27;34775;-87
2021/03/03 05:12:28;;;;;;;;;;;;;;;10.60;36.71;101692.91;5213263;27;33120;-89
2021/03/03 05:14:55;;;;;;;;;;;;;;;10.76;36.50;101692.91;5249053;27;33788;-86
2021/03/03 05:17:22;;;;;;;;;;;;;;;10.64;36.59;101699.84;5231397;27;33137;-86
2021/03/03 05:19:49;;;;;;;;;;;;;;;11.17;35.60;101694.59;5232159;27;33495;-86
2021/03/03 05:22:18;;;;;;;;;;;;;;;11.07;35.71;101695.47;5248564;27;34379;-88
2021/03/03 05:24:45;;;;;;;;;;;;;;;10.94;35.91;101697.22;5232654;27;34244;-87
2021/03/03 05:27:12;;;;;;;;;;;;;;;11.18;35.30;101696.31;5231681;27;32959;-86
2021/03/03 05:29:39;;;;;;;;;;;;;;;11.09;35.46;101689.41;5248954;27;34905;-89
2021/03/03 05:32:07;;;;;;;;;;;;;;;10.85;35.98;101690.31;5231074;27;33803;-86
2021/03/03 05:34:34;;;;;;;;;;;;;;;10.89;35.75;101689.44;5249154;27;33450;-89
2021/03/03 05:37:02;;;;;;;;;;;;;;;10.52;36.60;101694.66;5231326;27;32332;-85
2021/03/03 05:39:29;;;;;;;;;;;;;;;10.71;36.08;101695.50;5231175;27;33364;-88
2021/03/03 05:42:02;;;;;;;;;;;;;;;10.68;36.19;101690.31;5231475;27;33593;-86
2021/03/03 05:44:29;;;;;;;;;;;;;;;10.71;36.16;101689.44;5231414;27;33896;-87
2021/03/03 05:46:57;;;;;;;;;;;;;;;10.19;37.29;101691.09;5232656;27;34097;-86
2021/03/03 05:49:24;;;;;;;;;;;;;;;10.71;36.36;101690.28;5213713;27;32655;-86
2021/03/03 05:51:54;;;;;;;;;;;;;;;11.02;35.64;101698.97;5231840;27;34240;-87
2021/03/03 05:54:21;;;;;;;;;;;;;;;10.24;37.14;101698.91;5232756;27;34154;-86
2021/03/03 05:56:48;;;;;;;;;;;;;;;10.14;37.45;101704.09;5233273;27;33208;-86
2021/03/03 05:59:35;;;;;;;;;;;;;;;10.65;36.35;101701.59;5231742;27;33113;-87
2021/03/03 06:02:02;;;;;;;;;;;;;;;10.39;36.86;101698.13;5231980;27;33926;-87
2021/03/03 06:04:29;;;;;;;;;;;;;;;10.23;37.38;101703.25;5250489;27;34925;-87
2021/03/03 06:06:56;;;;;;;;;;;;;;;11.18;35.49;101696.31;5233589;27;31992;-87
2021/03/03 06:09:23;;;;;;;;;;;;;;;10.51;36.76;101698.13;5216982;27;33897;-83
2021/03/03 06:11:51;;;;;;;;;;;;;;;10.84;36.33;101697.25;5241995;27;34323;-86
2021/03/03 06:14:17;;;;;;;;;;;;;;;11.40;35.33;101697.13;5259659;27;35127;-83
2021/03/03 06:16:44;;;;;;;;;;;;;;;11.31;35.31;101698.03;5215051;27;32424;-85
2021/03/03 06:19:12;;;;;;;;;;;;;;;10.66;36.58;101695.53;5214133;27;33271;-84
2021/03/03 06:21:39;;;;;;;;;;;;;;;11.82;34.50;101700.47;5231897;27;32562;-86
2021/03/03 06:24:09;;;;;;;;;;;;;;;11.40;35.46;101696.28;5249501;27;34002;-87
2021/03/03 06:26:59;;;;;;;;;;;;;;;11.06;36.28;101694.59;5231058;27;32098;-89
2021/03/03 06:29:26;;;;;;;;;;;;;;;10.66;37.15;101697.25;5231017;27;32532;-84
2021/03/03 06:31:53;;;;;;;;;;;;;;;12.18;34.03;101689.84;5230477;27;35158;-87
2021/03/03 06:34:47;;;;;;;;;;;;;;;12.35;33.58;101693.22;5216179;27;33061;-87
2021/03/03 06:37:14;;;;;;;;;;;;;;;12.22;33.79;101694.19;5231949;27;31941;-84
2021/03/03 06:39:42;;;;;;;;;;;;;;;12.82;32.71;101690.22;5249510;27;34172;-85
2021/03/03 06:42:10;;;;;;;;;;;;;;;12.90;32.82;101696.25;5230988;27;35161;-87
2021/03/03 06:44:50;;;;;;;;;;;;;;;12.49;33.95;101687.00;5230390;27;32931;-86
2021/03/03 06:47:18;;;;;;;;;;;;;;;12.72;33.84;101693.81;5232059;27;34129;-85
2021/03/03 06:49:49;;;;;;;;;;;;;;;13.15;33.08;101693.41;5230477;27;33240;-84
2021/03/03 06:52:17;;;;;;;;;;;;;;;13.16;33.10;101692.50;5231700;27;34366;-85
2021/03/03 06:54:44;;;;;;;;;;;;;;;13.13;33.22;101693.41;5232246;27;33193;-85
2021/03/03 06:57:14;;;;;;;;;;;;;;;13.22;32.89;101697.69;5231996;27;32688;-85
2021/03/03 06:59:42;;;;;;;;;;;;;;;13.55;32.49;101692.97;5233151;27;34839;-86
2021/03/03 07:02:10;;;;;;;;;;;;;;;13.06;33.58;101693.50;5249948;27;33320;-85
2021/03/03 07:04:40;;;;;;;;;;;;;;;13.84;32.19;101686.47;5249480;27;32875;-86
2021/03/03 07:07:10;;;;;;;;;;;;;;;13.97;32.11;101689.81;5251238;27;33644;-85
2021/03/03 07:09:44;;;;;;;;;;;;;;;14.09;31.95;101688.78;5214619;27;34493;-86
2021/03/03 07:12:12;;;;;;;;;;;;;;;14.49;31.08;101685.53;5232308;27;34706;-84
2021/03/03 07:14:40;;;;;;;;;;;;;;;14.65;30.70;101684.44;5233260;27;34088;-86
2021/03/03 07:17:08;;;;;;;;;;;;;;;14.72;30.71;101685.19;5249495;27;33266;-85
2021/03/03 07:19:37;;;;;;;;;;;;;;;15.06;30.06;101684.56;5232033;27;35152;-86
2021/03/03 07:22:06;;;;;;;;;;;;;;;15.14;30.08;101677.44;5249156;27;34783;-88
2021/03/03 07:24:34;;;;;;;;;;;;;;;15.59;29.37;101675.66;5248897;27;34407;-84
2021/03/03 07:27:02;;;;;;;;;;;;;;;14.98;30.41;101675.97;5254399;27;33120;-83
2021/03/03 07:29:29;;;;;;;;;;;;;;;15.53;29.80;101676.69;5253993;27;34373;-83
2021/03/03 07:31:56;;;;;;;;;;;;;;;15.44;29.94;101680.34;5250468;27;34291;-83
2021/03/03 07:34:25;;;;;;;;;;;;;;;15.97;29.28;101676.66;5236315;27;34209;-86
2021/03/03 07:36:53;;;;;;;;;;;;;;;15.94;29.53;101672.31;5232457;27;34157;-84
2021/03/03 07:39:20;;;;;;;;;;;;;;;16.66;28.58;101674.13;5230564;27;34278;-86
2021/03/03 07:41:50;;;;;;;;;;;;;;;16.86;28.35;101678.88;5249714;27;34693;-85
2021/03/03 07:44:19;;;;;;;;;;;;;;;17.28;27.65;101675.97;5232091;27;33244;-84
2021/03/03 07:46:49;;;;;;;;;;;;;;;17.25;27.81;101678.69;5214002;27;32914;-89
2021/03/03 07:49:21;;;;;;;;;;;;;;;17.54;27.42;101674.37;5232651;27;34301;-86
2021/03/03 07:51:49;;;;;;;;;;;;;;;17.75;26.96;101677.28;5232286;27;33727;-88
2021/03/03 07:54:16;;;;;;;;;;;;;;;17.97;26.50;101670.47;5230926;27;34072;-87
2021/03/03 07:56:44;;;;;;;;;;;;;;;18.24;26.13;101675.78;5232550;27;33984;-87
2021/03/03 07:59:11;;;;;;;;;;;;;;;18.25;26.01;101672.22;5249094;27;35773;-86
2021/03/03 08:01:38;;;;;;;;;;;;;;;18.65;25.49;101664.75;5248748;27;33973;-87
2021/03/03 08:04:06;;;;;;;;;;;;;;;18.71;25.63;101667.19;5248663;27;34092;-87
2021/03/03 08:06:35;;;;;;;;;;;;;;;18.72;25.78;101668.06;5231165;27;34151;-87
2021/03/03 08:09:09;;;;;;;;;;;;;;;19.03;25.60;101671.38;5249471;27;34129;-87
2021/03/03 08:11:36;;;;;;;;;;;;;;;18.93;25.69;101659.44;5232764;27;34225;-86
2021/03/03 08:14:25;;;;;;;;;;;;;;;18.83;25.92;101671.19;5232227;27;34489;-83
2021/03/03 08:16:57;;;;;;;;;;;;;;;19.26;25.37;101661.75;5232739;27;32993;-85
2021/03/03 08:19:44;;;;;;;;;;;;;;;19.28;25.39;101661.69;5230901;27;34097;-85
2021/03/03 08:22:11;;;;;;;;;;;;;;;19.55;25.06;101658.97;5220383;27;34959;-84
2021/03/03 08:24:38;;;;;;;;;;;;;;;19.98;24.49;101659.94;5248955;27;34232;-84
2021/03/03 08:27:24;;;;;;;;;;;;;;;20.38;23.83;101660.94;5231564;27;33372;-84
2021/03/03 08:30:11;;;;;;;;;;;;;;;20.58;23.37;101652.19;5213476;27;33804;-84
2021/03/03 08:32:38;;;;;;;;;;;;;;;20.57;22.69;101655.75;5231669;27;34425;-86
2021/03/03 08:35:07;;;;;;;;;;;;;;;20.49;22.82;101655.22;5231726;27;32885;-83
2021/03/03 08:37:36;;;;;;;;;;;;;;;20.84;22.49;101658.19;5232765;27;33253;-85
2021/03/03 08:40:26;;;;;;;;;;;;;;;20.87;21.97;101652.72;5248664;27;33809;-84
2021/03/03 08:42:54;;;;;;;;;;;;;;;21.26;21.46;101651.91;5226051;27;34300;-85
2021/03/03 08:45:21;;;;;;;;;;;;;;;20.96;21.50;101654.97;5232309;27;33257;-85
2021/03/03 08:47:53;;;;;;;;;;;;;;;21.14;20.92;101655.09;5232782;27;34271;-87
2021/03/03 08:50:30;;;;;;;;;;;;;;;20.82;21.15;101658.25;5233633;27;33880;-87
2021/03/03 08:53:17;;;;;;;;;;;;;;;20.81;20.93;101660.97;5255449;27;33929;-84
2021/03/03 08:55:45;;;;;;;;;;;;;;;21.42;20.37;101656.47;5225866;27;35146;-86
2021/03/03 08:58:49;;;;;;;;;;;;;;;21.15;20.67;101649.75;5250726;27;34833;-85
2021/03/03 09:01:16;;;;;;;;;;;;;;;21.28;20.59;101647.37;5187433;27;32548;-87
2021/03/03 09:03:45;;;;;;;;;;;;;;;21.66;20.12;101663.34;5171270;27;34045;-81
2021/03/03 09:06:24;;;;;;;;;;;;;;;20.93;20.63;101657.78;5171836;27;34035;-81
2021/03/03 09:08:57;;;;;;;;;;;;;;;21.42;20.43;101651.19;5170010;27;33294;-85
2021/03/03 09:11:25;;;;;;;;;;;;;;;20.93;20.68;101644.53;5187551;27;34151;-87
2021/03/03 09:13:54;;;;;;;;;;;;;;;21.51;20.05;101643.66;5188268;27;33486;-86
2021/03/03 09:16:21;;;;;;;;;;;;;;;21.09;20.22;101639.41;5171023;27;34781;-88
2021/03/03 09:19:01;;;;;;;;;;;;;;;21.39;19.85;101638.91;5187942;27;33446;-87
2021/03/03 09:21:28;;;;;;;;;;;;;;;21.34;19.82;101644.44;5187707;27;34109;-86
2021/03/03 09:24:11;;;;;;;;;;;;;;;21.29;19.92;101646.44;5187871;27;34013;-87
2021/03/03 09:26:38;;;;;;;;;;;;;;;21.71;19.49;101644.53;5187713;27;33353;-86
2021/03/03 09:29:06;;;;;;;;;;;;;;;22.09;19.19;101635.66;5170447;27;32089;-84
2021/03/03 09:31:36;;;;;;;;;;;;;;;21.05;20.11;101640.47;5188053;27;33809;-85
2021/03/03 09:34:04;;;;;;;;;;;;;;;21.35;19.78;101640.88;5187917;27;34641;-85
2021/03/03 09:36:31;;;;;;;;;;;;;;;21.19;20.05;101630.13;5230230;27;34219;-84
2021/03/03 09:38:59;;;;;;;;;;;;;;;21.27;19.90;101627.13;5231857;27;34069;-84
2021/03/03 09:41:27;;;;;;;;;;;;;;;21.71;19.55;101628.62;5231666;27;33994;-86
2021/03/03 09:44:01;;;;;;;;;;;;;;;22.18;18.98;101621.94;5231888;27;32824;-88
2021/03/03 09:46:49;;;;;;;;;;;;;;;22.78;18.41;101623.37;5214529;27;33342;-87
2021/03/03 09:49:20;;;;;;;;;;;;;;;22.92;18.19;101620.84;5233409;27;34025;-88
2021/03/03 09:51:47;;;;;;;;;;;;;;;22.34;18.69;101616.72;5249465;27;35199;-85
2021/03/03 09:54:29;;;;;;;;;;;;;;;22.99;18.00;101614.25;5231594;27;32826;-87
2021/03/03 09:57:11;;;;;;;;;;;;;;;23.36;17.74;101611.44;5232494;27;33167;-88
2021/03/03 09:59:40;;;;;;;;;;;;;;;23.07;17.53;101607.63;5232237;27;33411;-87
2021/03/03 10:02:08;;;;;;;;;;;;;;;22.59;17.79;101611.03;5233567;27;32913;-87
2021/03/03 10:04:36;;;;;;;;;;;;;;;23.59;17.03;101607.47;5249770;27;34965;-87
2021/03/03 10:07:19;;;;;;;;;;;;;;;23.44;16.98;101606.53;5231856;27;34108;-85
2021/03/03 10:09:47;;;;;;;;;;;;;;;23.50;17.15;101605.31;5249112;27;34717;-85
2021/03/03 10:12:15;;;;;;;;;;;;;;;23.59;17.20;101596.81;5249802;27;34108;-85
2021/03/03 10:15:02;;;;;;;;;;;;;;;22.51;18.35;101599.97;5231738;27;34500;-87
2021/03/03 10:17:55;;;;;;;;;;;;;;;22.48;18.54;101610.72;5231667;27;32924;-89
2021/03/03 10:20:35;;;;;;;;;;;;;;;21.54;19.36;101608.22;5231648;27;33947;-86
2021/03/03 10:23:09;;;;;;;;;;;;;;;22.48;18.33;101610.72;5233423;27;34958;-88
2021/03/03 10:25:40;;;;;;;;;;;;;;;22.24;18.46;101603.03;5233336;27;34310;-87
2021/03/03 10:28:12;;;;;;;;;;;;;;;22.25;18.55;101607.41;5234443;27;34779;-85
2021/03/03 10:30:42;;;;;;;;;;;;;;;21.66;19.17;101602.31;5253418;27;33354;-84
2021/03/03 10:33:10;;;;;;;;;;;;;;;22.14;18.65;101602.66;5239659;27;34968;-83
2021/03/03 10:35:45;;;;;;;;;;;;;;;22.58;18.37;101609.31;5217581;27;33879;-86
2021/03/03 10:38:19;;;;;;;;;;;;;;;22.77;18.18;101597.72;5250846;27;33663;-86
2021/03/03 10:40:47;;;;;;;;;;;;;;;22.54;18.58;101599.78;5250499;27;33190;-84
2021/03/03 10:43:15;;;;;;;;;;;;;;;23.15;17.75;101584.22;5249597;27;34440;-87
2021/03/03 10:45:42;;;;;;;;;;;;;;;22.52;17.85;101585.72;5231510;27;34184;-86
2021/03/03 10:48:28;;;;;;;;;;;;;;;22.50;17.91;101577.00;5231770;27;34377;-83
2021/03/03 10:50:58;;;;;;;;;;;;;;;21.82;18.73;101581.22;5234124;27;33045;-87
2021/03/03 10:53:42;;;;;;;;;;;;;;;22.69;17.67;101571.56;5231611;27;32368;-84
2021/03/03 10:56:18;;;;;;;;;;;;;;;22.64;18.25;101562.97;5231302;27;34715;-87
2021/03/03 10:58:47;;;;;;;;;;;;;;;22.34;18.00;101561.81;5233252;27;34522;-84
2021/03/03 11:01:18;;;;;;;;;;;;;;;23.20;17.17;101558.25;5235243;27;33478;-88
2021/03/03 11:03:49;;;;;;;;;;;;;;;23.34;16.88;101552.97;5231100;27;33962;-85
2021/03/03 11:06:17;;;;;;;;;;;;;;;23.81;16.69;101550.34;5232155;27;34326;-88
2021/03/03 11:08:44;;;;;;;;;;;;;;;24.18;16.72;101545.56;5231809;27;33875;-85
2021/03/03 11:11:12;;;;;;;;;;;;;;;24.91;15.34;101541.16;5248133;27;34011;-86
2021/03/03 11:13:39;;;;;;;;;;;;;;;24.45;15.15;101542.16;5230501;27;32645;-87
2021/03/03 11:16:06;;;;;;;;;;;;;;;25.19;14.16;101542.94;5230263;27;34164;-88
2021/03/03 11:18:38;;;;;;;;;;;;;;;23.83;14.47;101530.69;5234235;27;35013;-86
2021/03/03 11:21:06;;;;;;;;;;;;;;;24.99;13.74;101529.06;5231011;27;32823;-87
2021/03/03 11:23:33;;;;;;;;;;;;;;;25.45;13.29;101524.44;5231092;27;33467;-87
2021/03/03 11:26:10;;;;;;;;;;;;;;;25.37;13.45;101516.91;5231046;27;32693;-86
2021/03/03 11:28:39;;;;;;;;;;;;;;;23.80;14.94;101519.34;5230133;27;32954;-85
2021/03/03 11:31:08;;;;;;;;;;;;;;;25.62;13.38;101510.81;5247865;27;33341;-86
2021/03/03 11:33:35;;;;;;;;;;;;;;;24.33;14.05;101509.16;5230473;27;32742;-85
2021/03/03 11:36:03;;;;;;;;;;;;;;;24.97;13.62;101506.09;5231330;27;34419;-87
2021/03/03 11:38:35;;;;;;;;;;;;;;;24.93;14.08;101507.25;5233297;27;33672;-83
2021/03/03 11:41:02;;;;;;;;;;;;;;;25.57;13.92;101498.72;5231388;27;32458;-87
2021/03/03 11:43:31;;;;;;;;;;;;;;;25.03;14.29;101492.38;5231607;27;33226;-86
2021/03/03 11:46:02;;;;;;;;;;;;;;;24.87;14.44;101487.19;5233623;27;34193;-85
2021/03/03 11:48:29;;;;;;;;;;;;;;;23.81;15.44;101490.03;5249432;27;33993;-84
2021/03/03 11:50:57;;;;;;;;;;;;;;;24.81;14.24;101482.22;5231533;27;32938;-85
2021/03/03 11:53:24;;;;;;;;;;;;;;;23.59;15.69;101479.78;5231595;27;33016;-84
2021/03/03 11:55:51;;;;;;;;;;;;;;;23.45;15.56;101475.28;5249125;27;33861;-85
2021/03/03 11:58:18;;;;;;;;;;;;;;;23.62;15.25;101466.28;5249035;27;34492;-86
2021/03/03 12:00:45;;;;;;;;;;;;;;;24.62;14.11;101475.44;5249262;27;32820;-87
2021/03/03 12:03:13;;;;;;;;;;;;;;;25.00;14.18;101471.28;5233396;27;34436;-85
2021/03/03 12:05:40;;;;;;;;;;;;;;;24.97;14.19;101467.00;5250474;27;34405;-85
2021/03/03 12:08:09;;;;;;;;;;;;;;;25.15;13.90;101469.41;5232148;27;34517;-86
2021/03/03 12:10:37;;;;;;;;;;;;;;;24.02;15.29;101457.75;5237013;27;34159;-84
2021/03/03 12:13:05;;;;;;;;;;;;;;;23.38;15.23;101462.41;5218048;27;32393;-84
2021/03/03 12:15:32;;;;;;;;;;;;;;;23.10;15.61;101458.62;5256031;27;34362;-83
2021/03/03 12:17:59;;;;;;;;;;;;;;;23.89;14.79;101451.44;5236775;27;33167;-84
2021/03/03 12:20:36;;;;;;;;;;;;;;;24.14;14.50;101445.50;5249800;27;33181;-87
2021/03/03 12:23:03;;;;;;;;;;;;;;;24.01;13.75;101454.25;5232082;27;33884;-85
2021/03/03 12:25:30;;;;;;;;;;;;;;;23.38;13.85;101443.78;5249675;27;33472;-85
2021/03/03 12:27:58;;;;;;;;;;;;;;;23.59;13.81;101441.69;5231829;27;34671;-85
2021/03/03 12:30:25;;;;;;;;;;;;;;;23.80;13.55;101436.84;5231698;27;34145;-87
2021/03/03 12:32:52;;;;;;;;;;;;;;;24.86;12.83;101440.16;5231582;27;34171;-87
2021/03/03 12:35:19;;;;;;;;;;;;;;;24.00;13.62;101427.72;5249844;27;35165;-84
2021/03/03 12:37:46;;;;;;;;;;;;;;;24.64;13.15;101428.22;5231738;27;34806;-86
2021/03/03 12:40:13;;;;;;;;;;;;;;;24.78;13.27;101423.81;5230169;27;32154;-85
2021/03/03 12:42:40;;;;;;;;;;;;;;;24.14;13.61;101413.56;5231074;27;34713;-86
2021/03/03 12:45:08;;;;;;;;;;;;;;;24.29;13.38;101411.75;5213448;27;32802;-86
2021/03/03 12:47:35;;;;;;;;;;;;;;;24.48;13.43;101406.13;5232599;27;33850;-87